sensor_id;sensor_type;location;lat;lon;timestamp;pressure;altitude;pressure_sealevel;temperature;humidity
47080;BME280;33067;49.296;14.470;2022-09-17T00:00:37;96220.09;;;14.99;40.10
47080;BME280;33067;49.296;14.470;2022-09-17T00:02:57;96222.69;;;14.94;39.99
47080;BME280;33067;49.296;14.470;2022-09-17T00:05:24;96220.09;;;14.89;40.16
47080;BME280;33067;49.296;14.470;2022-09-17T00:07:39;96215.74;;;14.99;40.01
47080;BME280;33067;49.296;14.470;2022-09-17T00:10:10;96213.34;;;15.18;40.06
47080;BME280;33067;49.296;14.470;2022-09-17T00:12:34;96214.38;;;14.91;40.08
47080;BME280;33067;49.296;14.470;2022-09-17T00:15:00;96215.55;;;14.83;40.44
47080;BME280;33067;49.296;14.470;2022-09-17T00:17:20;96214.39;;;14.92;40.46
47080;BME280;33067;49.296;14.470;2022-09-17T00:19:48;96211.55;;;15.23;40.40
47080;BME280;33067;49.296;14.470;2022-09-17T00:22:11;96210.08;;;14.98;40.69
47080;BME280;33067;49.296;14.470;2022-09-17T00:24:40;96209.39;;;15.08;40.45
47080;BME280;33067;49.296;14.470;2022-09-17T00:27:06;96207.00;;;15.08;40.29
47080;BME280;33067;49.296;14.470;2022-09-17T00:29:36;96203.90;;;15.12;40.19
47080;BME280;33067;49.296;14.470;2022-09-17T00:32:11;96199.75;;;15.22;40.48
47080;BME280;33067;49.296;14.470;2022-09-17T00:34:31;96198.05;;;15.29;40.05
47080;BME280;33067;49.296;14.470;2022-09-17T00:36:50;96195.10;;;15.29;39.62
47080;BME280;33067;49.296;14.470;2022-09-17T00:39:11;96195.28;;;14.84;40.02
47080;BME280;33067;49.296;14.470;2022-09-17T00:41:43;96196.11;;;15.10;39.87
47080;BME280;33067;49.296;14.470;2022-09-17T00:43:59;96197.07;;;14.90;39.80
47080;BME280;33067;49.296;14.470;2022-09-17T00:46:32;96198.46;;;15.27;40.05
47080;BME280;33067;49.296;14.470;2022-09-17T00:48:51;96196.25;;;15.22;40.08
47080;BME280;33067;49.296;14.470;2022-09-17T00:51:27;96202.00;;;15.02;39.97
47080;BME280;33067;49.296;14.470;2022-09-17T00:53:52;96205.42;;;15.03;39.83
47080;BME280;33067;49.296;14.470;2022-09-17T00:56:21;96206.13;;;15.04;39.87
47080;BME280;33067;49.296;14.470;2022-09-17T00:58:34;96208.04;;;14.97;39.96
47080;BME280;33067;49.296;14.470;2022-09-17T01:00:57;96207.78;;;14.95;40.04
47080;BME280;33067;49.296;14.470;2022-09-17T01:03:20;96207.86;;;15.25;40.12
47080;BME280;33067;49.296;14.470;2022-09-17T01:05:51;96208.80;;;15.04;40.14
47080;BME280;33067;49.296;14.470;2022-09-17T01:08:27;96207.54;;;15.12;39.99
47080;BME280;33067;49.296;14.470;2022-09-17T01:13:15;96205.34;;;15.22;40.60
47080;BME280;33067;49.296;14.470;2022-09-17T01:15:35;96201.20;;;15.31;40.57
47080;BME280;33067;49.296;14.470;2022-09-17T01:18:36;96207.21;;;15.28;40.40
47080;BME280;33067;49.296;14.470;2022-09-17T01:23:11;96216.09;;;14.62;39.06
47080;BME280;33067;49.296;14.470;2022-09-17T01:25:21;96210.42;;;16.13;38.08
47080;BME280;33067;49.296;14.470;2022-09-17T01:32:37;96209.57;;;15.75;38.35
47080;BME280;33067;49.296;14.470;2022-09-17T01:35:00;96208.31;;;15.60;38.56
47080;BME280;33067;49.296;14.470;2022-09-17T01:37:21;96211.47;;;15.43;39.09
47080;BME280;33067;49.296;14.470;2022-09-17T01:39:50;96214.83;;;15.03;39.71
47080;BME280;33067;49.296;14.470;2022-09-17T01:42:28;96217.04;;;15.06;39.64
47080;BME280;33067;49.296;14.470;2022-09-17T01:44:51;96221.86;;;15.07;40.00
47080;BME280;33067;49.296;14.470;2022-09-17T01:47:21;96223.05;;;14.65;40.43
47080;BME280;33067;49.296;14.470;2022-09-17T01:49:34;96224.63;;;14.69;40.74
47080;BME280;33067;49.296;14.470;2022-09-17T01:51:56;96224.23;;;14.49;40.75
47080;BME280;33067;49.296;14.470;2022-09-17T01:54:24;96218.44;;;14.59;40.80
47080;BME280;33067;49.296;14.470;2022-09-17T01:57:01;96216.12;;;14.70;40.60
47080;BME280;33067;49.296;14.470;2022-09-17T01:59:09;96217.36;;;14.79;40.30
47080;BME280;33067;49.296;14.470;2022-09-17T02:01:35;96221.41;;;15.02;40.26
47080;BME280;33067;49.296;14.470;2022-09-17T02:04:13;96228.93;;;14.78;40.24
47080;BME280;33067;49.296;14.470;2022-09-17T02:06:28;96229.48;;;14.65;40.33
47080;BME280;33067;49.296;14.470;2022-09-17T02:08:55;96227.47;;;14.70;40.38
47080;BME280;33067;49.296;14.470;2022-09-17T02:13:29;96221.09;;;14.65;39.91
47080;BME280;33067;49.296;14.470;2022-09-17T02:15:51;96219.39;;;14.77;39.88
47080;BME280;33067;49.296;14.470;2022-09-17T02:18:07;96217.36;;;14.24;40.35
47080;BME280;33067;49.296;14.470;2022-09-17T02:20:38;96218.60;;;14.21;40.79
47080;BME280;33067;49.296;14.470;2022-09-17T02:22:43;96219.01;;;14.25;40.82
47080;BME280;33067;49.296;14.470;2022-09-17T02:25:37;96216.86;;;13.94;41.04
47080;BME280;33067;49.296;14.470;2022-09-17T02:27:38;96214.94;;;14.02;41.10
47080;BME280;33067;49.296;14.470;2022-09-17T02:29:57;96213.00;;;13.68;41.71
47080;BME280;33067;49.296;14.470;2022-09-17T02:32:22;96207.57;;;13.55;41.87
47080;BME280;33067;49.296;14.470;2022-09-17T02:34:59;96211.36;;;13.79;42.38
47080;BME280;33067;49.296;14.470;2022-09-17T02:37:23;96209.83;;;13.47;42.38
47080;BME280;33067;49.296;14.470;2022-09-17T02:39:38;96208.65;;;13.29;42.40
47080;BME280;33067;49.296;14.470;2022-09-17T02:42:11;96210.74;;;13.08;42.95
47080;BME280;33067;49.296;14.470;2022-09-17T02:44:47;96206.98;;;13.51;42.56
47080;BME280;33067;49.296;14.470;2022-09-17T02:47:06;96203.13;;;13.31;42.41
47080;BME280;33067;49.296;14.470;2022-09-17T02:49:33;96205.93;;;13.77;42.38
47080;BME280;33067;49.296;14.470;2022-09-17T02:51:53;96208.86;;;13.91;41.96
47080;BME280;33067;49.296;14.470;2022-09-17T02:54:49;96206.89;;;13.59;42.54
47080;BME280;33067;49.296;14.470;2022-09-17T02:56:54;96208.26;;;13.23;42.76
47080;BME280;33067;49.296;14.470;2022-09-17T02:59:09;96199.27;;;13.45;42.40
47080;BME280;33067;49.296;14.470;2022-09-17T03:01:39;96198.97;;;13.85;42.13
47080;BME280;33067;49.296;14.470;2022-09-17T03:04:13;96196.89;;;13.67;42.06
47080;BME280;33067;49.296;14.470;2022-09-17T03:06:17;96190.08;;;13.93;41.81
47080;BME280;33067;49.296;14.470;2022-09-17T03:08:44;96183.66;;;13.77;41.76
47080;BME280;33067;49.296;14.470;2022-09-17T03:11:19;96178.64;;;13.71;41.85
47080;BME280;33067;49.296;14.470;2022-09-17T03:13:34;96176.33;;;13.70;41.81
47080;BME280;33067;49.296;14.470;2022-09-17T03:16:26;96174.96;;;13.86;42.10
47080;BME280;33067;49.296;14.470;2022-09-17T03:21:15;96173.89;;;13.98;41.66
47080;BME280;33067;49.296;14.470;2022-09-17T03:23:21;96178.99;;;13.77;41.66
47080;BME280;33067;49.296;14.470;2022-09-17T03:25:51;96179.48;;;13.88;41.55
47080;BME280;33067;49.296;14.470;2022-09-17T03:28:16;96177.58;;;13.85;41.53
47080;BME280;33067;49.296;14.470;2022-09-17T03:30:46;96181.56;;;13.85;41.50
47080;BME280;33067;49.296;14.470;2022-09-17T03:33:01;96182.84;;;14.11;41.74
47080;BME280;33067;49.296;14.470;2022-09-17T03:35:33;96182.92;;;13.72;41.89
47080;BME280;33067;49.296;14.470;2022-09-17T03:38:12;96183.15;;;13.40;42.17
47080;BME280;33067;49.296;14.470;2022-09-17T03:40:24;96182.61;;;13.44;42.27
47080;BME280;33067;49.296;14.470;2022-09-17T03:42:53;96179.10;;;13.52;42.04
47080;BME280;33067;49.296;14.470;2022-09-17T03:45:13;96177.27;;;13.59;41.89
47080;BME280;33067;49.296;14.470;2022-09-17T03:47:28;96170.00;;;13.50;41.98
47080;BME280;33067;49.296;14.470;2022-09-17T03:49:59;96164.33;;;13.63;41.80
47080;BME280;33067;49.296;14.470;2022-09-17T03:52:40;96163.50;;;13.51;42.52
47080;BME280;33067;49.296;14.470;2022-09-17T03:54:46;96162.93;;;13.22;42.93
47080;BME280;33067;49.296;14.470;2022-09-17T03:57:40;96160.37;;;12.91;42.80
47080;BME280;33067;49.296;14.470;2022-09-17T03:59:34;96163.32;;;12.75;42.83
47080;BME280;33067;49.296;14.470;2022-09-17T04:02:00;96159.80;;;13.22;42.69
47080;BME280;33067;49.296;14.470;2022-09-17T04:04:29;96155.89;;;12.97;42.69
47080;BME280;33067;49.296;14.470;2022-09-17T04:06:56;96155.19;;;13.02;42.99
47080;BME280;33067;49.296;14.470;2022-09-17T04:09:36;96161.11;;;12.60;43.24
47080;BME280;33067;49.296;14.470;2022-09-17T04:11:58;96161.04;;;12.88;43.34
47080;BME280;33067;49.296;14.470;2022-09-17T04:14:21;96160.62;;;13.10;43.09
47080;BME280;33067;49.296;14.470;2022-09-17T04:16:47;96163.27;;;13.33;42.67
47080;BME280;33067;49.296;14.470;2022-09-17T04:19:09;96165.57;;;13.35;42.58
47080;BME280;33067;49.296;14.470;2022-09-17T04:21:48;96171.11;;;12.96;42.94
47080;BME280;33067;49.296;14.470;2022-09-17T04:24:04;96177.95;;;13.15;42.53
47080;BME280;33067;49.296;14.470;2022-09-17T04:26:25;96188.70;;;13.26;42.46
47080;BME280;33067;49.296;14.470;2022-09-17T04:28:40;96195.39;;;13.10;42.54
47080;BME280;33067;49.296;14.470;2022-09-17T04:31:04;96193.80;;;13.48;42.25
47080;BME280;33067;49.296;14.470;2022-09-17T04:33:29;96199.17;;;13.70;42.53
47080;BME280;33067;49.296;14.470;2022-09-17T04:35:55;96199.86;;;13.50;42.61
47080;BME280;33067;49.296;14.470;2022-09-17T04:38:26;96201.55;;;13.41;42.97
47080;BME280;33067;49.296;14.470;2022-09-17T04:40:54;96198.06;;;13.37;42.96
47080;BME280;33067;49.296;14.470;2022-09-17T04:43:21;96193.84;;;13.34;43.22
47080;BME280;33067;49.296;14.470;2022-09-17T04:45:39;96191.00;;;13.64;43.21
47080;BME280;33067;49.296;14.470;2022-09-17T04:48:20;96194.42;;;13.62;42.68
47080;BME280;33067;49.296;14.470;2022-09-17T04:50:27;96202.43;;;13.69;42.66
47080;BME280;33067;49.296;14.470;2022-09-17T04:52:53;96215.34;;;13.85;42.68
47080;BME280;33067;49.296;14.470;2022-09-17T04:55:23;96225.22;;;13.88;42.76
47080;BME280;33067;49.296;14.470;2022-09-17T04:58:01;96232.48;;;13.68;42.46
47080;BME280;33067;49.296;14.470;2022-09-17T05:00:13;96233.35;;;13.94;42.44
47080;BME280;33067;49.296;14.470;2022-09-17T05:02:35;96234.63;;;13.66;42.50
47080;BME280;33067;49.296;14.470;2022-09-17T05:05:04;96244.91;;;13.52;42.58
47080;BME280;33067;49.296;14.470;2022-09-17T05:07:29;96252.34;;;13.85;42.54
47080;BME280;33067;49.296;14.470;2022-09-17T05:09:52;96250.38;;;13.55;42.68
47080;BME280;33067;49.296;14.470;2022-09-17T05:12:20;96246.06;;;13.63;42.43
47080;BME280;33067;49.296;14.470;2022-09-17T05:14:46;96234.32;;;13.06;41.70
47080;BME280;33067;49.296;14.470;2022-09-17T05:17:07;96230.17;;;13.81;41.24
47080;BME280;33067;49.296;14.470;2022-09-17T05:19:34;96236.52;;;13.51;41.43
47080;BME280;33067;49.296;14.470;2022-09-17T05:22:01;96237.88;;;13.54;41.28
47080;BME280;33067;49.296;14.470;2022-09-17T05:24:37;96234.24;;;13.56;41.21
47080;BME280;33067;49.296;14.470;2022-09-17T05:26:49;96226.07;;;13.52;41.21
47080;BME280;33067;49.296;14.470;2022-09-17T05:29:12;96222.41;;;14.08;41.00
47080;BME280;33067;49.296;14.470;2022-09-17T05:31:37;96230.20;;;13.80;40.98
47080;BME280;33067;49.296;14.470;2022-09-17T05:34:03;96236.72;;;13.72;41.06
47080;BME280;33067;49.296;14.470;2022-09-17T05:38:56;96245.44;;;13.39;40.96
47080;BME280;33067;49.296;14.470;2022-09-17T05:41:23;96249.23;;;13.49;40.82
47080;BME280;33067;49.296;14.470;2022-09-17T05:43:46;96244.49;;;13.44;40.90
47080;BME280;33067;49.296;14.470;2022-09-17T05:46:10;96242.00;;;13.57;41.08
47080;BME280;33067;49.296;14.470;2022-09-17T05:48:34;96246.00;;;13.32;41.16
47080;BME280;33067;49.296;14.470;2022-09-17T05:51:00;96251.57;;;13.61;41.13
47080;BME280;33067;49.296;14.470;2022-09-17T05:54:01;96256.64;;;13.63;41.01
47080;BME280;33067;49.296;14.470;2022-09-17T05:56:04;96262.74;;;13.50;41.16
47080;BME280;33067;49.296;14.470;2022-09-17T05:58:17;96264.52;;;13.37;41.31
47080;BME280;33067;49.296;14.470;2022-09-17T06:00:41;96265.00;;;13.30;41.02
47080;BME280;33067;49.296;14.470;2022-09-17T06:03:07;96275.75;;;13.42;41.16
47080;BME280;33067;49.296;14.470;2022-09-17T06:05:31;96283.29;;;13.67;41.24
47080;BME280;33067;49.296;14.470;2022-09-17T06:07:57;96282.52;;;13.18;41.08
47080;BME280;33067;49.296;14.470;2022-09-17T06:10:22;96285.19;;;13.31;41.05
47080;BME280;33067;49.296;14.470;2022-09-17T06:12:47;96281.96;;;13.38;40.90
47080;BME280;33067;49.296;14.470;2022-09-17T06:15:17;96286.82;;;13.73;40.84
47080;BME280;33067;49.296;14.470;2022-09-17T06:17:39;96294.57;;;13.74;40.68
47080;BME280;33067;49.296;14.470;2022-09-17T06:20:04;96297.21;;;14.02;40.35
47080;BME280;33067;49.296;14.470;2022-09-17T06:22:43;96298.88;;;13.81;40.37
47080;BME280;33067;49.296;14.470;2022-09-17T06:24:55;96306.52;;;13.67;40.34
47080;BME280;33067;49.296;14.470;2022-09-17T06:27:22;96313.37;;;13.66;40.27
47080;BME280;33067;49.296;14.470;2022-09-17T06:29:46;96311.36;;;13.95;40.12
47080;BME280;33067;49.296;14.470;2022-09-17T06:32:11;96309.95;;;13.84;39.93
47080;BME280;33067;49.296;14.470;2022-09-17T06:34:37;96311.09;;;13.83;39.84
47080;BME280;33067;49.296;14.470;2022-09-17T06:37:02;96309.90;;;14.16;39.78
47080;BME280;33067;49.296;14.470;2022-09-17T06:39:28;96309.46;;;13.88;39.68
47080;BME280;33067;49.296;14.470;2022-09-17T06:41:53;96308.09;;;13.93;39.80
47080;BME280;33067;49.296;14.470;2022-09-17T06:44:18;96311.66;;;14.02;39.51
47080;BME280;33067;49.296;14.470;2022-09-17T06:46:43;96317.28;;;14.28;39.38
47080;BME280;33067;49.296;14.470;2022-09-17T06:49:08;96316.27;;;14.04;39.40
47080;BME280;33067;49.296;14.470;2022-09-17T06:51:35;96306.01;;;13.95;39.27
47080;BME280;33067;49.296;14.470;2022-09-17T06:54:00;96299.57;;;14.11;39.63
47080;BME280;33067;49.296;14.470;2022-09-17T06:56:24;96301.01;;;14.25;39.16
47080;BME280;33067;49.296;14.470;2022-09-17T06:58:50;96299.45;;;14.05;38.96
47080;BME280;33067;49.296;14.470;2022-09-17T07:01:15;96297.14;;;13.90;39.13
47080;BME280;33067;49.296;14.470;2022-09-17T07:03:41;96296.36;;;14.32;39.30
47080;BME280;33067;49.296;14.470;2022-09-17T07:06:07;96293.97;;;14.09;39.43
47080;BME280;33067;49.296;14.470;2022-09-17T07:08:31;96287.61;;;14.26;38.83
47080;BME280;33067;49.296;14.470;2022-09-17T07:10:57;96279.28;;;14.33;38.73
47080;BME280;33067;49.296;14.470;2022-09-17T07:13:22;96274.70;;;14.44;38.12
47080;BME280;33067;49.296;14.470;2022-09-17T07:15:52;96271.25;;;14.32;38.35
47080;BME280;33067;49.296;14.470;2022-09-17T07:18:12;96267.17;;;14.16;38.40
47080;BME280;33067;49.296;14.470;2022-09-17T07:20:38;96266.97;;;14.34;38.42
47080;BME280;33067;49.296;14.470;2022-09-17T07:23:03;96265.15;;;14.16;38.48
47080;BME280;33067;49.296;14.470;2022-09-17T07:25:30;96263.02;;;14.19;38.45
47080;BME280;33067;49.296;14.470;2022-09-17T07:27:54;96263.56;;;14.21;38.64
47080;BME280;33067;49.296;14.470;2022-09-17T07:30:19;96260.73;;;13.83;39.23
47080;BME280;33067;49.296;14.470;2022-09-17T07:32:53;96254.37;;;13.71;39.31
47080;BME280;33067;49.296;14.470;2022-09-17T07:35:09;96251.93;;;13.36;39.61
47080;BME280;33067;49.296;14.470;2022-09-17T07:37:36;96244.46;;;14.26;39.21
47080;BME280;33067;49.296;14.470;2022-09-17T07:40:00;96235.25;;;13.76;39.06
47080;BME280;33067;49.296;14.470;2022-09-17T07:42:37;96232.04;;;13.70;39.64
47080;BME280;33067;49.296;14.470;2022-09-17T07:44:50;96226.70;;;13.75;40.62
47080;BME280;33067;49.296;14.470;2022-09-17T07:47:17;96213.91;;;14.06;40.67
47080;BME280;33067;49.296;14.470;2022-09-17T07:49:44;96217.54;;;13.65;41.53
47080;BME280;33067;49.296;14.470;2022-09-17T07:52:14;96223.52;;;13.74;41.59
47080;BME280;33067;49.296;14.470;2022-09-17T07:54:32;96227.38;;;13.74;41.48
47080;BME280;33067;49.296;14.470;2022-09-17T07:57:07;96244.04;;;13.60;41.62
47080;BME280;33067;49.296;14.470;2022-09-17T07:59:28;96244.10;;;13.67;41.95
47080;BME280;33067;49.296;14.470;2022-09-17T08:01:53;96239.31;;;13.52;41.59
47080;BME280;33067;49.296;14.470;2022-09-17T08:04:18;96233.75;;;13.64;41.63
47080;BME280;33067;49.296;14.470;2022-09-17T08:06:38;96237.29;;;13.67;41.73
47080;BME280;33067;49.296;14.470;2022-09-17T08:09:09;96251.45;;;13.90;41.38
47080;BME280;33067;49.296;14.470;2022-09-17T08:11:30;96271.52;;;14.28;40.90
47080;BME280;33067;49.296;14.470;2022-09-17T08:13:55;96290.74;;;14.31;41.02
47080;BME280;33067;49.296;14.470;2022-09-17T08:16:25;96300.98;;;14.20;40.73
47080;BME280;33067;49.296;14.470;2022-09-17T08:18:45;96299.23;;;14.62;40.81
47080;BME280;33067;49.296;14.470;2022-09-17T08:21:14;96302.73;;;14.06;41.58
47080;BME280;33067;49.296;14.470;2022-09-17T08:23:44;96301.49;;;14.52;41.20
47080;BME280;33067;49.296;14.470;2022-09-17T08:26:10;96301.91;;;14.46;41.68
47080;BME280;33067;49.296;14.470;2022-09-17T08:30:53;96291.39;;;14.84;41.15
47080;BME280;33067;49.296;14.470;2022-09-17T08:33:19;96290.07;;;14.62;41.83
47080;BME280;33067;49.296;14.470;2022-09-17T08:35:59;96292.06;;;14.31;41.48
47080;BME280;33067;49.296;14.470;2022-09-17T08:38:13;96275.30;;;14.53;41.91
47080;BME280;33067;49.296;14.470;2022-09-17T08:40:38;96275.73;;;14.32;42.48
47080;BME280;33067;49.296;14.470;2022-09-17T08:43:01;96284.36;;;14.28;42.41
47080;BME280;33067;49.296;14.470;2022-09-17T08:45:24;96290.30;;;14.45;41.66
47080;BME280;33067;49.296;14.470;2022-09-17T08:47:49;96291.52;;;14.46;41.96
47080;BME280;33067;49.296;14.470;2022-09-17T08:50:16;96294.42;;;13.59;43.39
47080;BME280;33067;49.296;14.470;2022-09-17T08:52:56;96297.30;;;14.22;44.12
47080;BME280;33067;49.296;14.470;2022-09-17T08:57:37;96304.28;;;14.02;43.01
47080;BME280;33067;49.296;14.470;2022-09-17T09:00:18;96297.46;;;14.10;42.77
47080;BME280;33067;49.296;14.470;2022-09-17T09:05:14;96284.56;;;14.10;42.15
47080;BME280;33067;49.296;14.470;2022-09-17T09:07:28;96279.13;;;13.32;43.13
47080;BME280;33067;49.296;14.470;2022-09-17T09:09:48;96288.07;;;13.73;43.10
47080;BME280;33067;49.296;14.470;2022-09-17T09:12:08;96292.84;;;13.01;44.09
47080;BME280;33067;49.296;14.470;2022-09-17T09:14:31;96287.86;;;13.67;42.40
47080;BME280;33067;49.296;14.470;2022-09-17T09:16:58;96293.58;;;13.22;42.91
47080;BME280;33067;49.296;14.470;2022-09-17T09:19:40;96293.55;;;13.51;42.71
47080;BME280;33067;49.296;14.470;2022-09-17T09:22:00;96291.18;;;13.18;43.44
47080;BME280;33067;49.296;14.470;2022-09-17T09:24:18;96291.72;;;13.16;43.72
47080;BME280;33067;49.296;14.470;2022-09-17T09:26:44;96289.09;;;13.46;42.92
47080;BME280;33067;49.296;14.470;2022-09-17T09:29:18;96286.52;;;13.85;42.02
47080;BME280;33067;49.296;14.470;2022-09-17T09:31:33;96288.15;;;13.76;41.90
47080;BME280;33067;49.296;14.470;2022-09-17T09:34:04;96276.53;;;13.17;42.53
47080;BME280;33067;49.296;14.470;2022-09-17T09:36:37;96271.02;;;13.81;42.01
47080;BME280;33067;49.296;14.470;2022-09-17T09:38:52;96274.38;;;12.45;43.38
47080;BME280;33067;49.296;14.470;2022-09-17T09:43:47;96280.47;;;12.68;42.85
47080;BME280;33067;49.296;14.470;2022-09-17T09:46:18;96288.83;;;13.51;42.22
47080;BME280;33067;49.296;14.470;2022-09-17T09:48:33;96291.58;;;12.97;42.86
47080;BME280;33067;49.296;14.470;2022-09-17T09:51:11;96301.83;;;12.99;42.80
47080;BME280;33067;49.296;14.470;2022-09-17T09:53:28;96314.46;;;13.63;41.48
47080;BME280;33067;49.296;14.470;2022-09-17T09:56:05;96313.71;;;13.14;42.25
47080;BME280;33067;49.296;14.470;2022-09-17T09:58:19;96318.88;;;13.21;42.47
47080;BME280;33067;49.296;14.470;2022-09-17T10:00:40;96316.89;;;13.17;42.13
47080;BME280;33067;49.296;14.470;2022-09-17T10:05:19;96318.82;;;13.95;41.90
47080;BME280;33067;49.296;14.470;2022-09-17T10:07:44;96315.22;;;13.66;42.35
47080;BME280;33067;49.296;14.470;2022-09-17T10:10:10;96314.89;;;14.03;42.65
47080;BME280;33067;49.296;14.470;2022-09-17T10:12:41;96313.48;;;13.95;42.30
47080;BME280;33067;49.296;14.470;2022-09-17T10:17:31;96307.51;;;13.87;43.20
47080;BME280;33067;49.296;14.470;2022-09-17T10:20:14;96302.20;;;13.83;43.85
47080;BME280;33067;49.296;14.470;2022-09-17T10:22:24;96301.38;;;14.46;42.60
47080;BME280;33067;49.296;14.470;2022-09-17T10:24:41;96298.88;;;14.34;41.90
47080;BME280;33067;49.296;14.470;2022-09-17T10:27:14;96296.97;;;14.33;42.10
47080;BME280;33067;49.296;14.470;2022-09-17T10:29:41;96295.31;;;14.42;41.70
47080;BME280;33067;49.296;14.470;2022-09-17T10:32:27;96288.44;;;14.84;41.05
47080;BME280;33067;49.296;14.470;2022-09-17T10:34:34;96284.86;;;14.89;40.73
47080;BME280;33067;49.296;14.470;2022-09-17T10:37:09;96284.94;;;15.01;40.62
47080;BME280;33067;49.296;14.470;2022-09-17T10:39:35;96283.75;;;14.98;40.25
47080;BME280;33067;49.296;14.470;2022-09-17T10:44:16;96290.74;;;14.66;39.76
47080;BME280;33067;49.296;14.470;2022-09-17T10:46:45;96288.85;;;13.97;40.66
47080;BME280;33067;49.296;14.470;2022-09-17T10:51:28;96288.60;;;14.02;40.65
47080;BME280;33067;49.296;14.470;2022-09-17T10:54:00;96290.89;;;14.14;40.35
47080;BME280;33067;49.296;14.470;2022-09-17T10:56:30;96294.42;;;14.08;40.34
47080;BME280;33067;49.296;14.470;2022-09-17T10:58:47;96293.00;;;14.11;40.30
47080;BME280;33067;49.296;14.470;2022-09-17T11:01:16;96290.34;;;14.55;39.65
47080;BME280;33067;49.296;14.470;2022-09-17T11:03:55;96285.09;;;14.72;39.58
47080;BME280;33067;49.296;14.470;2022-09-17T11:06:08;96286.91;;;14.78;39.59
47080;BME280;33067;49.296;14.470;2022-09-17T11:08:23;96277.34;;;14.43;40.33
47080;BME280;33067;49.296;14.470;2022-09-17T11:11:10;96276.54;;;14.63;40.02
47080;BME280;33067;49.296;14.470;2022-09-17T11:13:18;96275.32;;;14.32;40.56
47080;BME280;33067;49.296;14.470;2022-09-17T11:15:43;96278.77;;;14.48;41.17
47080;BME280;33067;49.296;14.470;2022-09-17T11:20:39;96276.11;;;14.88;42.21
47080;BME280;33067;49.296;14.470;2022-09-17T11:23:05;96279.62;;;14.85;42.39
47080;BME280;33067;49.296;14.470;2022-09-17T11:25:31;96281.31;;;14.46;43.53
47080;BME280;33067;49.296;14.470;2022-09-17T11:27:52;96269.59;;;14.24;43.41
47080;BME280;33067;49.296;14.470;2022-09-17T11:30:18;96278.82;;;14.25;43.11
47080;BME280;33067;49.296;14.470;2022-09-17T11:32:49;96272.38;;;14.54;42.93
47080;BME280;33067;49.296;14.470;2022-09-17T11:35:01;96266.44;;;14.45;43.20
47080;BME280;33067;49.296;14.470;2022-09-17T11:37:27;96265.67;;;14.56;42.94
47080;BME280;33067;49.296;14.470;2022-09-17T11:39:52;96266.96;;;14.59;42.75
47080;BME280;33067;49.296;14.470;2022-09-17T11:42:32;96263.48;;;14.55;42.73
47080;BME280;33067;49.296;14.470;2022-09-17T11:44:44;96256.55;;;14.08;43.19
47080;BME280;33067;49.296;14.470;2022-09-17T11:47:09;96261.49;;;13.49;44.26
47080;BME280;33067;49.296;14.470;2022-09-17T11:49:51;96270.14;;;14.18;43.54
47080;BME280;33067;49.296;14.470;2022-09-17T11:52:16;96266.24;;;14.23;43.88
47080;BME280;33067;49.296;14.470;2022-09-17T11:54:36;96273.55;;;14.32;43.56
47080;BME280;33067;49.296;14.470;2022-09-17T11:56:55;96284.74;;;14.12;44.80
47080;BME280;33067;49.296;14.470;2022-09-17T11:59:40;96294.87;;;14.58;44.21
47080;BME280;33067;49.296;14.470;2022-09-17T12:02:13;96302.37;;;14.56;44.07
47080;BME280;33067;49.296;14.470;2022-09-17T12:11:48;96286.98;;;14.69;43.29
47080;BME280;33067;49.296;14.470;2022-09-17T12:14:16;96281.82;;;14.67;43.51
47080;BME280;33067;49.296;14.470;2022-09-17T12:16:30;96271.58;;;15.07;43.06
47080;BME280;33067;49.296;14.470;2022-09-17T12:21:03;96266.07;;;14.36;43.83
47080;BME280;33067;49.296;14.470;2022-09-17T12:23:32;96263.51;;;14.73;43.23
47080;BME280;33067;49.296;14.470;2022-09-17T12:28:24;96259.92;;;15.08;42.73
47080;BME280;33067;49.296;14.470;2022-09-17T12:30:52;96261.21;;;15.23;42.35
47080;BME280;33067;49.296;14.470;2022-09-17T12:33:29;96263.35;;;15.41;41.84
47080;BME280;33067;49.296;14.470;2022-09-17T12:40:33;96259.40;;;15.65;41.89
47080;BME280;33067;49.296;14.470;2022-09-17T12:42:59;96258.00;;;15.53;41.68
47080;BME280;33067;49.296;14.470;2022-09-17T12:45:28;96253.55;;;15.56;41.64
47080;BME280;33067;49.296;14.470;2022-09-17T12:50:15;96243.77;;;15.46;42.24
47080;BME280;33067;49.296;14.470;2022-09-17T12:52:55;96241.61;;;15.22;41.97
47080;BME280;33067;49.296;14.470;2022-09-17T12:57:30;96231.42;;;14.97;42.77
47080;BME280;33067;49.296;14.470;2022-09-17T13:02:23;96224.14;;;15.18;42.73
47080;BME280;33067;49.296;14.470;2022-09-17T13:10:05;96211.74;;;14.71;42.92
47080;BME280;33067;49.296;14.470;2022-09-17T13:16:48;96190.90;;;14.52;42.06
47080;BME280;33067;49.296;14.470;2022-09-17T13:19:26;96183.97;;;14.70;41.62
47080;BME280;33067;49.296;14.470;2022-09-17T13:23:59;96171.66;;;15.06;41.36
47080;BME280;33067;49.296;14.470;2022-09-17T13:26:32;96172.12;;;15.02;41.29
47080;BME280;33067;49.296;14.470;2022-09-17T13:28:51;96177.58;;;14.90;41.54
47080;BME280;33067;49.296;14.470;2022-09-17T13:31:20;96186.28;;;14.97;42.92
47080;BME280;33067;49.296;14.470;2022-09-17T13:33:50;96184.62;;;14.87;44.04
47080;BME280;33067;49.296;14.470;2022-09-17T13:38:39;96188.56;;;14.37;45.50
47080;BME280;33067;49.296;14.470;2022-09-17T13:41:18;96187.71;;;14.66;45.35
47080;BME280;33067;49.296;14.470;2022-09-17T13:43:24;96195.87;;;14.71;45.62
47080;BME280;33067;49.296;14.470;2022-09-17T13:46:06;96196.25;;;13.70;46.50
47080;BME280;33067;49.296;14.470;2022-09-17T13:48:19;96192.83;;;13.62;46.98
47080;BME280;33067;49.296;14.470;2022-09-17T13:50:42;96196.21;;;13.81;46.85
47080;BME280;33067;49.296;14.470;2022-09-17T13:56:00;96195.35;;;13.94;46.52
47080;BME280;33067;49.296;14.470;2022-09-17T13:58:37;96201.30;;;14.50;45.62